createdAt,value
2018-01-10T00:00:59.438Z,97541.57
2018-01-10T00:02:02.378Z,97542.16
2018-01-10T00:03:05.279Z,97537.64
2018-01-10T00:04:08.233Z,97539.33
2018-01-10T00:05:11.163Z,97538.95
2018-01-10T00:06:14.005Z,97543.82
2018-01-10T00:07:17.240Z,97534.72
2018-01-10T00:08:20.110Z,97533.89
2018-01-10T00:09:22.912Z,97536.48
2018-01-10T00:10:25.788Z,97525.42
2018-01-10T00:11:28.642Z,97523.91
2018-01-10T00:12:31.538Z,97517.85
2018-01-10T00:13:34.687Z,97519.45
2018-01-10T00:14:37.682Z,97514.70
2018-01-10T00:15:40.533Z,97517.48
2018-01-10T00:16:43.459Z,97513.62
2018-01-10T00:17:46.382Z,97517.28
2018-01-10T00:18:49.376Z,97516.33
2018-01-10T00:19:52.633Z,97509.09
2018-01-10T00:20:55.557Z,97510.62
2018-01-10T00:21:58.511Z,97517.56
2018-01-10T00:23:01.432Z,97514.98
2018-01-10T00:24:04.342Z,97513.66
2018-01-10T00:25:07.257Z,97515.97
2018-01-10T00:26:10.500Z,97508.31
2018-01-10T00:27:13.644Z,97509.16
2018-01-10T00:28:16.609Z,97510.06
2018-01-10T00:29:19.602Z,97509.64
2018-01-10T00:30:22.572Z,97509.04
2018-01-10T00:31:25.519Z,97504.00
2018-01-10T00:32:28.931Z,97501.04
2018-01-10T00:33:31.865Z,97506.83
2018-01-10T00:34:34.752Z,97503.91
2018-01-10T00:35:37.691Z,97509.70
2018-01-10T00:36:40.868Z,97507.74
2018-01-10T00:37:43.803Z,97501.77
2018-01-10T00:38:47.242Z,97501.73
2018-01-10T00:39:50.152Z,97504.87
2018-01-10T00:40:53.036Z,97504.86
2018-01-10T00:41:55.991Z,97499.27
2018-01-10T00:42:58.963Z,97495.98
2018-01-10T00:44:01.908Z,97501.59
2018-01-10T00:45:05.241Z,97502.94
2018-01-10T00:46:08.175Z,97505.03
2018-01-10T00:47:11.088Z,97502.70
2018-01-10T00:48:14.029Z,97495.87
2018-01-10T00:49:16.992Z,97496.72
2018-01-10T00:50:19.990Z,97496.48
2018-01-10T00:51:23.295Z,97495.71
2018-01-10T00:52:26.227Z,97498.97
2018-01-10T00:53:29.187Z,97500.03
2018-01-10T00:54:32.209Z,97496.98
2018-01-10T00:55:35.184Z,97493.17
2018-01-10T00:56:38.132Z,97495.53
2018-01-10T00:57:41.384Z,97498.38
2018-01-10T00:58:44.293Z,97491.37
2018-01-10T00:59:47.236Z,97492.25
2018-01-10T01:00:50.197Z,97496.32
2018-01-10T01:01:53.130Z,97493.24
2018-01-10T01:02:56.125Z,97491.66
2018-01-10T01:03:59.463Z,97493.22
2018-01-10T01:05:02.464Z,97491.64
2018-01-10T01:06:05.384Z,97490.03
2018-01-10T01:07:08.280Z,97488.60
2018-01-10T01:08:11.236Z,97490.22
2018-01-10T01:09:14.129Z,97491.94
2018-01-10T01:10:17.490Z,97492.97
2018-01-10T01:11:20.507Z,97490.66
2018-01-10T01:12:23.422Z,97492.97
2018-01-10T01:13:26.342Z,97487.63
2018-01-10T01:14:29.266Z,97486.34
2018-01-10T01:15:32.183Z,97488.98
2018-01-10T01:16:35.564Z,97491.57
2018-01-10T01:17:38.555Z,97487.98
2018-01-10T01:18:41.497Z,97482.05
2018-01-10T01:19:44.402Z,97486.66
2018-01-10T01:20:47.315Z,97484.58
2018-01-10T01:21:50.205Z,97492.16
2018-01-10T01:22:53.608Z,97494.28
2018-01-10T01:23:56.520Z,97494.55
2018-01-10T01:24:59.438Z,97496.14
2018-01-10T01:26:02.337Z,97495.55
2018-01-10T01:27:05.232Z,97494.52
2018-01-10T01:28:08.144Z,97493.68
2018-01-10T01:29:11.460Z,97493.11
2018-01-10T01:30:14.404Z,97493.31
2018-01-10T01:31:17.369Z,97493.74
2018-01-10T01:32:20.276Z,97496.23
2018-01-10T01:33:23.152Z,97494.13
2018-01-10T01:34:26.087Z,97496.30
2018-01-10T01:35:29.341Z,97493.87
2018-01-10T01:36:32.747Z,97498.98
2018-01-10T01:37:35.666Z,97499.42
2018-01-10T01:38:38.776Z,97503.63
2018-01-10T01:39:41.661Z,97495.89
2018-01-10T01:40:44.596Z,97500.66
2018-01-10T01:41:48.000Z,97497.11
2018-01-10T01:42:50.919Z,97499.70
2018-01-10T01:43:53.794Z,97498.38
2018-01-10T01:44:56.805Z,97500.39
2018-01-10T01:45:59.697Z,97498.45
2018-01-10T01:47:02.618Z,97497.25
2018-01-10T01:48:05.829Z,97499.92
2018-01-10T01:49:08.733Z,97493.58
2018-01-10T01:50:11.678Z,97493.41
2018-01-10T01:51:14.619Z,97497.27
2018-01-10T01:52:17.562Z,97494.92
2018-01-10T01:53:20.500Z,97497.09
2018-01-10T01:54:23.969Z,97490.12
2018-01-10T01:55:26.923Z,97495.19
2018-01-10T01:56:29.864Z,97493.91
2018-01-10T01:57:32.850Z,97494.66
2018-01-10T01:58:35.810Z,97493.73
2018-01-10T01:59:38.975Z,97496.77
2018-01-10T02:00:42.442Z,97496.81
2018-01-10T02:01:45.374Z,97498.77
2018-01-10T02:02:48.319Z,97491.63
2018-01-10T02:03:51.280Z,97490.81
2018-01-10T02:04:54.221Z,97493.95
2018-01-10T02:05:57.173Z,97490.69
2018-01-10T02:07:00.466Z,97489.13
2018-01-10T02:08:03.435Z,97489.79
2018-01-10T02:09:06.371Z,97490.59
2018-01-10T02:10:09.325Z,97493.92
2018-01-10T02:11:12.323Z,97487.36
2018-01-10T02:12:15.243Z,97484.26
2018-01-10T02:13:18.507Z,97487.78
2018-01-10T02:14:21.442Z,97485.80
2018-01-10T02:15:24.356Z,97485.39
2018-01-10T02:16:28.172Z,97486.00
2018-01-10T02:17:31.133Z,97492.08
2018-01-10T02:18:34.016Z,97485.81
2018-01-10T02:19:37.397Z,97483.77
2018-01-10T02:20:40.408Z,97483.27
2018-01-10T02:21:43.336Z,97484.48
2018-01-10T02:22:46.292Z,97483.94
2018-01-10T02:23:49.226Z,97480.26
2018-01-10T02:24:52.168Z,97475.84
2018-01-10T02:25:55.562Z,97482.26
2018-01-10T02:26:58.547Z,97483.78
2018-01-10T02:28:02.300Z,97481.43
2018-01-10T02:29:05.298Z,97482.36
2018-01-10T02:30:08.316Z,97480.52
2018-01-10T02:31:11.288Z,97486.20
2018-01-10T02:32:14.633Z,97480.81
2018-01-10T02:33:17.636Z,97480.41
2018-01-10T02:34:20.623Z,97482.53
2018-01-10T02:35:26.884Z,97478.91
2018-01-10T02:36:29.807Z,97476.28
2018-01-10T02:37:32.748Z,97469.70
2018-01-10T02:38:36.029Z,97477.02
2018-01-10T02:39:38.944Z,97473.72
2018-01-10T02:40:41.843Z,97471.38
2018-01-10T02:41:44.746Z,97477.03
2018-01-10T02:42:47.704Z,97474.28
2018-01-10T02:43:50.658Z,97472.17
2018-01-10T02:44:53.921Z,97474.19
2018-01-10T02:45:56.900Z,97474.38
2018-01-10T02:46:59.824Z,97477.17
2018-01-10T02:48:02.794Z,97475.23
2018-01-10T02:49:05.747Z,97478.69
2018-01-10T02:50:08.643Z,97474.30
2018-01-10T02:51:12.082Z,97476.16
2018-01-10T02:52:15.128Z,97472.16
2018-01-10T02:53:17.990Z,97476.45
2018-01-10T02:54:20.864Z,97472.95
2018-01-10T02:55:23.706Z,97479.66
2018-01-10T02:56:26.563Z,97476.10
2018-01-10T02:57:29.864Z,97474.95
2018-01-10T02:58:32.720Z,97473.34
2018-01-10T02:59:35.595Z,97471.97
2018-01-10T03:00:38.415Z,97478.00
2018-01-10T03:01:41.350Z,97474.23
2018-01-10T03:02:44.302Z,97474.14
2018-01-10T03:03:47.596Z,97475.95
2018-01-10T03:04:50.534Z,97475.32
2018-01-10T03:05:53.456Z,97479.05
2018-01-10T03:06:56.423Z,97480.66
2018-01-10T03:07:59.278Z,97479.38
2018-01-10T03:09:02.096Z,97475.50
2018-01-10T03:10:05.462Z,97473.63
2018-01-10T03:11:08.455Z,97481.01
2018-01-10T03:12:11.460Z,97475.98
2018-01-10T03:13:14.384Z,97473.47
2018-01-10T03:14:17.346Z,97477.28
2018-01-10T03:15:20.284Z,97480.92
2018-01-10T03:16:23.749Z,97474.18
2018-01-10T03:17:26.677Z,97472.31
2018-01-10T03:18:29.647Z,97474.83
2018-01-10T03:19:32.598Z,97478.80
2018-01-10T03:20:35.554Z,97470.09
2018-01-10T03:21:38.491Z,97471.88
2018-01-10T03:22:41.778Z,97464.68
2018-01-10T03:23:44.750Z,97472.12
2018-01-10T03:24:47.720Z,97471.84
2018-01-10T03:25:50.692Z,97464.11
2018-01-10T03:26:53.623Z,97467.45
2018-01-10T03:27:56.584Z,97466.44
2018-01-10T03:29:00.010Z,97463.66
2018-01-10T03:30:02.970Z,97465.31
2018-01-10T03:31:05.948Z,97465.74
2018-01-10T03:32:08.950Z,97468.05
2018-01-10T03:33:11.904Z,97466.48
2018-01-10T03:34:14.846Z,97463.89
2018-01-10T03:35:18.309Z,97469.59
2018-01-10T03:36:21.273Z,97467.73
2018-01-10T03:37:24.259Z,97466.10
2018-01-10T03:38:27.241Z,97470.92
2018-01-10T03:39:30.247Z,97466.17
2018-01-10T03:40:33.236Z,97469.53
2018-01-10T03:41:36.559Z,97465.52
2018-01-10T03:42:39.509Z,97465.58
2018-01-10T03:43:42.441Z,97459.61
2018-01-10T03:44:45.430Z,97467.52
2018-01-10T03:45:48.396Z,97459.59
2018-01-10T03:46:51.368Z,97470.09
2018-01-10T03:47:54.805Z,97465.64
2018-01-10T03:48:57.793Z,97463.43
2018-01-10T03:50:00.804Z,97467.09
2018-01-10T03:51:03.847Z,97465.20
2018-01-10T03:52:07.144Z,97466.61
2018-01-10T03:53:10.120Z,97462.79
2018-01-10T03:54:13.514Z,97472.36
2018-01-10T03:55:16.500Z,97467.70
2018-01-10T03:56:19.461Z,97476.81
2018-01-10T03:57:22.415Z,97470.41
2018-01-10T03:58:25.343Z,97475.55
2018-01-10T03:59:28.228Z,97474.28
2018-01-10T04:00:31.589Z,97474.48
2018-01-10T04:01:34.477Z,97476.67
2018-01-10T04:02:37.379Z,97478.80
2018-01-10T04:03:40.348Z,97474.91
2018-01-10T04:04:43.305Z,97479.34
2018-01-10T04:05:46.242Z,97477.11
2018-01-10T04:06:49.645Z,97481.34
2018-01-10T04:07:52.625Z,97474.18
2018-01-10T04:08:55.595Z,97478.13
2018-01-10T04:09:58.579Z,97478.36
2018-01-10T04:11:01.505Z,97477.90
2018-01-10T04:12:04.507Z,97477.97
2018-01-10T04:13:07.931Z,97479.69
2018-01-10T04:14:10.865Z,97478.65
2018-01-10T04:15:13.823Z,97477.70
2018-01-10T04:16:16.788Z,97476.77
2018-01-10T04:17:19.777Z,97478.78
2018-01-10T04:18:22.818Z,97478.25
2018-01-10T04:19:26.133Z,97479.42
2018-01-10T04:20:29.186Z,97475.68
2018-01-10T04:21:32.134Z,97484.18
2018-01-10T04:22:35.122Z,97476.27
2018-01-10T04:23:38.074Z,97487.34
2018-01-10T04:24:41.067Z,97476.73
2018-01-10T04:25:44.471Z,97479.23
2018-01-10T04:26:47.553Z,97478.81
2018-01-10T04:27:50.579Z,97479.97
2018-01-10T04:28:53.576Z,97479.78
2018-01-10T04:29:56.520Z,97476.88
2018-01-10T04:30:59.522Z,97480.66
2018-01-10T04:32:02.980Z,97475.68
2018-01-10T04:33:05.983Z,97480.34
2018-01-10T04:34:08.944Z,97476.14
2018-01-10T04:35:11.951Z,97478.52
2018-01-10T04:36:14.896Z,97474.91
2018-01-10T04:37:17.893Z,97474.12
2018-01-10T04:38:22.112Z,97475.44
2018-01-10T04:39:25.114Z,97477.14
2018-01-10T04:40:28.083Z,97470.52
2018-01-10T04:41:30.999Z,97470.63
2018-01-10T04:42:33.948Z,97472.13
2018-01-10T04:43:36.883Z,97469.36
2018-01-10T04:44:40.175Z,97475.88
2018-01-10T04:45:43.129Z,97473.92
2018-01-10T04:46:46.099Z,97468.91
2018-01-10T04:47:49.057Z,97470.33
2018-01-10T04:48:52.038Z,97465.06
2018-01-10T04:49:54.999Z,97472.20
2018-01-10T04:50:58.299Z,97465.98
2018-01-10T04:52:01.211Z,97467.40
2018-01-10T04:53:04.192Z,97464.39
2018-01-10T04:54:07.127Z,97464.42
2018-01-10T04:55:10.088Z,97458.81
2018-01-10T04:56:13.058Z,97463.02
2018-01-10T04:57:16.394Z,97466.73
2018-01-10T04:58:19.330Z,97468.33
2018-01-10T04:59:22.173Z,97460.98
2018-01-10T05:00:25.016Z,97460.91
2018-01-10T05:01:27.871Z,97458.97
2018-01-10T05:02:30.756Z,97461.55
2018-01-10T05:03:34.085Z,97460.45
2018-01-10T05:04:37.630Z,97459.59
2018-01-10T05:05:40.587Z,97460.72
2018-01-10T05:06:43.572Z,97465.20
2018-01-10T05:07:46.530Z,97458.89
2018-01-10T05:08:49.473Z,97454.20
2018-01-10T05:09:52.846Z,97459.23
2018-01-10T05:10:55.776Z,97460.98
2018-01-10T05:11:58.721Z,97464.45
2018-01-10T05:13:01.729Z,97465.78
2018-01-10T05:14:04.682Z,97464.81
2018-01-10T05:15:07.727Z,97466.70
2018-01-10T05:16:11.012Z,97460.77
2018-01-10T05:17:13.956Z,97464.19
2018-01-10T05:18:16.899Z,97473.41
2018-01-10T05:19:19.880Z,97468.03
2018-01-10T05:20:23.664Z,97471.57
2018-01-10T05:21:26.637Z,97467.92
2018-01-10T05:22:29.912Z,97464.77
2018-01-10T05:23:32.868Z,97466.12
2018-01-10T05:24:35.819Z,97462.92
2018-01-10T05:25:38.781Z,97465.17
2018-01-10T05:26:41.763Z,97468.31
2018-01-10T05:27:44.732Z,97467.70
2018-01-10T05:28:48.183Z,97463.84
2018-01-10T05:29:51.136Z,97467.80
2018-01-10T05:30:54.103Z,97464.20
2018-01-10T05:31:57.070Z,97462.75
2018-01-10T05:32:59.994Z,97462.83
2018-01-10T05:34:02.965Z,97466.80
2018-01-10T05:35:06.287Z,97467.52
2018-01-10T05:36:09.211Z,97465.25
2018-01-10T05:37:12.192Z,97462.66
2018-01-10T05:38:15.141Z,97463.16
2018-01-10T05:39:18.173Z,97462.51
2018-01-10T05:40:21.119Z,97463.02
2018-01-10T05:41:24.567Z,97459.75
2018-01-10T05:42:27.538Z,97468.71
2018-01-10T05:43:30.512Z,97466.28
2018-01-10T05:44:33.531Z,97467.16
2018-01-10T05:45:36.507Z,97466.12
2018-01-10T05:46:39.450Z,97461.77
2018-01-10T05:47:42.777Z,97464.08
2018-01-10T05:48:45.786Z,97453.33
2018-01-10T05:49:48.850Z,97460.14
2018-01-10T05:50:51.861Z,97459.95
2018-01-10T05:51:54.818Z,97460.50
2018-01-10T05:52:57.760Z,97462.11
2018-01-10T05:54:01.285Z,97463.83
2018-01-10T05:55:04.336Z,97465.94
2018-01-10T05:56:07.279Z,97463.80
2018-01-10T05:57:10.242Z,97464.95
2018-01-10T05:58:13.230Z,97461.06
2018-01-10T05:59:16.176Z,97464.95
2018-01-10T06:00:19.536Z,97461.25
2018-01-10T06:01:22.467Z,97461.94
2018-01-10T06:02:25.418Z,97463.23
2018-01-10T06:03:28.376Z,97469.23
2018-01-10T06:04:31.348Z,97466.85
2018-01-10T06:05:34.311Z,97465.97
2018-01-10T06:06:37.291Z,97469.64
2018-01-10T06:07:40.304Z,97466.97
2018-01-10T06:08:43.328Z,97474.66
2018-01-10T06:09:46.318Z,97470.06
2018-01-10T06:10:49.271Z,97466.70
2018-01-10T06:11:52.757Z,97467.86
2018-01-10T06:12:55.706Z,97471.19
2018-01-10T06:13:58.722Z,97466.92
2018-01-10T06:15:01.659Z,97473.92
2018-01-10T06:16:04.592Z,97469.30
2018-01-10T06:17:07.580Z,97466.92
2018-01-10T06:18:10.992Z,97467.14
2018-01-10T06:19:14.028Z,97464.23
2018-01-10T06:20:17.286Z,97467.12
2018-01-10T06:21:20.234Z,97465.19
2018-01-10T06:22:23.153Z,97467.91
2018-01-10T06:23:26.029Z,97468.30
2018-01-10T06:24:29.398Z,97472.03
2018-01-10T06:25:32.412Z,97466.10
2018-01-10T06:26:35.379Z,97461.63
2018-01-10T06:27:38.886Z,97472.31
2018-01-10T06:28:42.130Z,97466.91
2018-01-10T06:29:46.061Z,97467.01
2018-01-10T06:30:48.996Z,97476.45
2018-01-10T06:31:51.964Z,97472.95
2018-01-10T06:32:54.942Z,97470.75
2018-01-10T06:33:58.125Z,97471.33
2018-01-10T06:35:02.401Z,97473.02
2018-01-10T06:36:05.992Z,97469.27
2018-01-10T06:37:08.960Z,97472.01
2018-01-10T06:38:11.948Z,97473.95
2018-01-10T06:39:14.857Z,97476.98
2018-01-10T06:40:17.777Z,97472.68
2018-01-10T06:41:20.794Z,97477.38
2018-01-10T06:42:24.281Z,97474.20
2018-01-10T06:43:27.272Z,97474.10
2018-01-10T06:44:30.236Z,97477.55
2018-01-10T06:45:33.291Z,97468.86
2018-01-10T06:46:36.358Z,97468.31
2018-01-10T06:47:39.304Z,97480.28
2018-01-10T06:48:42.713Z,97476.48
2018-01-10T06:49:45.699Z,97473.09
2018-01-10T06:50:48.668Z,97476.41
2018-01-10T06:51:51.605Z,97481.31
2018-01-10T06:52:54.547Z,97471.08
2018-01-10T06:53:58.080Z,97475.91
2018-01-10T06:55:01.091Z,97475.38
2018-01-10T06:56:04.016Z,97479.52
2018-01-10T06:57:07.011Z,97476.78
2018-01-10T06:58:09.986Z,97474.25
2018-01-10T06:59:12.930Z,97476.16
2018-01-10T07:00:16.504Z,97477.27
2018-01-10T07:01:19.439Z,97479.66
2018-01-10T07:02:22.487Z,97479.48
2018-01-10T07:03:25.748Z,97474.25
2018-01-10T07:04:28.698Z,97478.67
2018-01-10T07:05:31.672Z,97474.60
2018-01-10T07:06:34.978Z,97475.38
2018-01-10T07:07:37.970Z,97474.23
2018-01-10T07:08:40.940Z,97473.79
2018-01-10T07:09:43.939Z,97471.92
2018-01-10T07:10:46.971Z,97478.52
2018-01-10T07:11:50.065Z,97479.17
2018-01-10T07:12:53.563Z,97484.17
2018-01-10T07:13:56.546Z,97478.97
2018-01-10T07:14:59.548Z,97477.02
2018-01-10T07:16:02.529Z,97473.48
2018-01-10T07:17:05.617Z,97480.39
2018-01-10T07:18:08.615Z,97475.30
2018-01-10T07:19:12.740Z,97481.89
2018-01-10T07:20:15.764Z,97482.57
2018-01-10T07:21:20.156Z,97476.23
2018-01-10T07:22:23.191Z,97477.34
2018-01-10T07:23:26.131Z,97478.28
2018-01-10T07:24:29.091Z,97478.30
2018-01-10T07:25:32.391Z,97482.03
2018-01-10T07:26:35.469Z,97477.40
2018-01-10T07:27:38.649Z,97478.75
2018-01-10T07:28:41.578Z,97479.11
2018-01-10T07:29:44.545Z,97479.39
2018-01-10T07:30:47.608Z,97480.23
2018-01-10T07:31:50.670Z,97483.95
2018-01-10T07:32:53.623Z,97479.67
2018-01-10T07:33:56.587Z,97480.83
2018-01-10T07:35:00.057Z,97482.95
2018-01-10T07:36:03.119Z,97485.13
2018-01-10T07:37:06.505Z,97485.70
2018-01-10T07:38:09.478Z,97486.27
2018-01-10T07:39:12.452Z,97486.84
2018-01-10T07:40:15.392Z,97490.28
2018-01-10T07:41:18.395Z,97493.67
2018-01-10T07:42:21.360Z,97490.16
2018-01-10T07:43:24.719Z,97492.31
2018-01-10T07:44:27.714Z,97486.86
2018-01-10T07:45:31.070Z,97490.92
2018-01-10T07:46:34.058Z,97486.88
2018-01-10T07:47:37.025Z,97488.77
2018-01-10T07:48:39.961Z,97493.03
2018-01-10T07:49:43.428Z,97487.45
2018-01-10T07:50:46.608Z,97491.20
2018-01-10T07:51:49.590Z,97484.11
2018-01-10T07:52:52.628Z,97486.44
2018-01-10T07:53:55.644Z,97496.20
2018-01-10T07:54:58.578Z,97492.28
2018-01-10T07:56:01.896Z,97493.34
2018-01-10T07:57:04.856Z,97496.58
2018-01-10T07:58:07.929Z,97496.17
2018-01-10T07:59:11.094Z,97493.87
2018-01-10T08:00:14.135Z,97500.18
2018-01-10T08:01:17.268Z,97500.18
2018-01-10T08:02:20.524Z,97503.91
2018-01-10T08:03:23.623Z,97499.55
2018-01-10T08:04:26.582Z,97497.65
2018-01-10T08:05:29.616Z,97504.81
2018-01-10T08:06:32.520Z,97497.17
2018-01-10T08:07:35.566Z,97502.22
2018-01-10T08:08:39.269Z,97505.30
2018-01-10T08:09:42.221Z,97501.27
2018-01-10T08:10:45.180Z,97501.66
2018-01-10T08:11:48.252Z,97500.50
2018-01-10T08:12:51.176Z,97503.58
2018-01-10T08:13:54.133Z,97508.03
2018-01-10T08:14:57.549Z,97512.66
2018-01-10T08:16:00.584Z,97511.98
2018-01-10T08:17:03.579Z,97513.02
2018-01-10T08:18:06.601Z,97509.52
2018-01-10T08:19:09.623Z,97507.54
2018-01-10T08:20:12.548Z,97512.95
2018-01-10T08:21:15.867Z,97516.83
2018-01-10T08:22:18.909Z,97518.02
2018-01-10T08:23:22.353Z,97516.88
2018-01-10T08:24:25.588Z,97517.27
2018-01-10T08:25:28.607Z,97521.22
2018-01-10T08:26:31.593Z,97514.98
2018-01-10T08:27:34.580Z,97518.14
2018-01-10T08:28:37.950Z,97518.61
2018-01-10T08:29:41.049Z,97515.90
2018-01-10T08:30:44.685Z,97527.33
2018-01-10T08:31:47.755Z,97521.27
2018-01-10T08:32:51.329Z,97523.84
2018-01-10T08:33:55.128Z,97524.75
2018-01-10T08:34:58.180Z,97528.75
2018-01-10T08:36:01.182Z,97524.94
2018-01-10T08:37:04.192Z,97527.12
2018-01-10T08:38:07.197Z,97526.44
2018-01-10T08:39:10.171Z,97531.91
2018-01-10T08:40:14.120Z,97526.30
2018-01-10T08:41:17.133Z,97527.90
2018-01-10T08:42:20.186Z,97528.44
2018-01-10T08:43:23.283Z,97536.48
2018-01-10T08:44:26.254Z,97529.98
2018-01-10T08:45:29.231Z,97526.70
2018-01-10T08:46:34.599Z,97527.45
2018-01-10T08:47:37.644Z,97528.20
2018-01-10T08:48:40.599Z,97533.76
2018-01-10T08:49:43.549Z,97531.27
2018-01-10T08:50:46.548Z,97530.52
2018-01-10T08:51:49.521Z,97530.87
2018-01-10T08:52:52.837Z,97530.45
2018-01-10T08:53:55.793Z,97532.56
2018-01-10T08:54:58.690Z,97530.10
2018-01-10T08:56:01.586Z,97524.49
2018-01-10T08:57:04.607Z,97531.20
2018-01-10T08:58:07.528Z,97533.68
2018-01-10T08:59:10.892Z,97528.67
2018-01-10T09:00:13.838Z,97528.64
2018-01-10T09:01:16.774Z,97533.08
2018-01-10T09:02:19.799Z,97532.13
2018-01-10T09:03:22.829Z,97527.12
2018-01-10T09:04:25.844Z,97534.17
2018-01-10T09:05:29.270Z,97526.86
2018-01-10T09:06:32.200Z,97534.43
2018-01-10T09:07:35.346Z,97529.13
2018-01-10T09:08:38.433Z,97526.16
2018-01-10T09:09:41.459Z,97528.54
2018-01-10T09:10:44.464Z,97531.92
2018-01-10T09:11:47.880Z,97529.20
2018-01-10T09:12:50.847Z,97534.03
2018-01-10T09:13:53.893Z,97532.77
2018-01-10T09:14:56.915Z,97522.11
2018-01-10T09:15:59.896Z,97528.12
2018-01-10T09:17:03.316Z,97532.53
2018-01-10T09:18:06.973Z,97522.78
2018-01-10T09:19:09.961Z,97534.03
2018-01-10T09:20:12.937Z,97531.20
2018-01-10T09:21:15.920Z,97526.84
2018-01-10T09:22:18.912Z,97527.35
2018-01-10T09:23:23.001Z,97524.61
2018-01-10T09:24:25.966Z,97525.52
2018-01-10T09:25:29.060Z,97525.65
2018-01-10T09:26:32.043Z,97528.60
2018-01-10T09:27:35.494Z,97528.50
2018-01-10T09:28:38.465Z,97524.34
2018-01-10T09:29:41.877Z,97525.58
2018-01-10T09:30:44.939Z,97522.78
2018-01-10T09:31:47.974Z,97520.16
2018-01-10T09:32:50.938Z,97520.23
2018-01-10T09:33:53.910Z,97525.14
2018-01-10T09:34:56.858Z,97524.87
2018-01-10T09:36:00.477Z,97520.56
2018-01-10T09:37:03.476Z,97523.28
2018-01-10T09:38:18.491Z,97514.56
2018-01-10T09:39:21.479Z,97515.06
2018-01-10T09:40:24.460Z,97516.58
2018-01-10T09:41:27.429Z,97514.80
2018-01-10T09:42:30.369Z,97523.86
2018-01-10T09:43:33.313Z,97514.88
2018-01-10T09:44:36.333Z,97516.56
2018-01-10T09:45:39.338Z,97525.55
2018-01-10T09:46:42.306Z,97520.75
2018-01-10T09:47:45.653Z,97523.12
2018-01-10T09:48:48.707Z,97522.67
2018-01-10T09:49:51.687Z,97522.68
2018-01-10T09:50:54.645Z,97526.81
2018-01-10T09:51:57.711Z,97521.01
2018-01-10T09:53:00.683Z,97518.33
2018-01-10T09:54:05.290Z,97520.34
2018-01-10T09:55:08.275Z,97521.80
2018-01-10T09:56:11.312Z,97518.73
2018-01-10T09:57:14.723Z,97517.23
2018-01-10T09:58:17.807Z,97519.50
2018-01-10T09:59:20.811Z,97521.63
2018-01-10T10:00:24.195Z,97515.57
2018-01-10T10:01:27.233Z,97517.95
2018-01-10T10:02:30.198Z,97524.69
2018-01-10T10:03:33.137Z,97520.59
2018-01-10T10:04:36.154Z,97522.42
2018-01-10T10:05:39.185Z,97517.69
2018-01-10T10:06:42.607Z,97514.88
2018-01-10T10:07:45.707Z,97512.41
2018-01-10T10:08:48.731Z,97522.06
2018-01-10T10:09:51.720Z,97515.30
2018-01-10T10:10:54.748Z,97512.19
2018-01-10T10:11:57.721Z,97514.45
2018-01-10T10:13:01.161Z,97521.71
2018-01-10T10:14:04.192Z,97518.62
2018-01-10T10:15:07.253Z,97513.17
2018-01-10T10:16:10.255Z,97511.03
2018-01-10T10:17:13.227Z,97505.42
2018-01-10T10:18:16.182Z,97509.56
2018-01-10T10:19:19.526Z,97514.80
2018-01-10T10:20:22.548Z,97517.75
2018-01-10T10:21:25.517Z,97511.80
2018-01-10T10:22:28.523Z,97512.64
2018-01-10T10:23:31.598Z,97510.64
2018-01-10T10:24:34.609Z,97516.73
2018-01-10T10:25:38.118Z,97510.63
2018-01-10T10:26:41.116Z,97512.62
2018-01-10T10:27:44.188Z,97509.82
2018-01-10T10:28:47.175Z,97504.70
2018-01-10T10:29:50.226Z,97503.16
2018-01-10T10:30:53.240Z,97495.64
2018-01-10T10:31:56.712Z,97506.80
2018-01-10T10:32:59.740Z,97495.56
2018-01-10T10:34:02.761Z,97487.23
2018-01-10T10:35:05.718Z,97494.48
2018-01-10T10:36:08.928Z,97491.19
2018-01-10T10:37:12.120Z,97502.63
2018-01-10T10:38:15.568Z,97494.79
2018-01-10T10:39:18.582Z,97489.59
2018-01-10T10:40:21.577Z,97490.20
2018-01-10T10:41:24.596Z,97498.52
2018-01-10T10:42:27.596Z,97484.86
2018-01-10T10:43:30.612Z,97496.46
2018-01-10T10:44:34.039Z,97490.47
2018-01-10T10:45:36.998Z,97506.12
2018-01-10T10:46:40.038Z,97487.04
2018-01-10T10:47:43.062Z,97488.86
2018-01-10T10:48:46.144Z,97486.91
2018-01-10T10:49:49.597Z,97482.91
2018-01-10T10:50:52.602Z,97492.41
2018-01-10T10:51:55.596Z,97481.30
2018-01-10T10:52:58.600Z,97485.06
2018-01-10T10:54:01.592Z,97486.70
2018-01-10T10:55:04.566Z,97489.95
2018-01-10T10:56:07.882Z,97485.28
2018-01-10T10:57:10.988Z,97484.84
2018-01-10T10:58:13.943Z,97471.77
2018-01-10T10:59:17.011Z,97481.94
2018-01-10T11:00:21.122Z,97481.72
2018-01-10T11:01:24.082Z,97490.69
2018-01-10T11:02:27.396Z,97479.11
2018-01-10T11:03:30.422Z,97475.70
2018-01-10T11:04:33.610Z,97478.92
2018-01-10T11:05:36.588Z,97476.14
2018-01-10T11:06:39.661Z,97473.22
2018-01-10T11:07:42.622Z,97484.02
2018-01-10T11:08:46.014Z,97472.53
2018-01-10T11:09:49.020Z,97470.61
2018-01-10T11:10:52.095Z,97471.33
2018-01-10T11:11:55.057Z,97470.98
2018-01-10T11:12:58.075Z,97467.43
2018-01-10T11:14:01.041Z,97468.34
2018-01-10T11:15:04.694Z,97465.52
2018-01-10T11:16:07.658Z,97469.25
2018-01-10T11:17:10.748Z,97469.45
2018-01-10T11:18:13.751Z,97466.06
2018-01-10T11:19:17.049Z,97462.35
2018-01-10T11:20:19.996Z,97460.42
2018-01-10T11:21:23.310Z,97457.30
2018-01-10T11:22:26.267Z,97468.30
2018-01-10T11:23:29.272Z,97457.11
2018-01-10T11:24:32.164Z,97450.72
2018-01-10T11:25:35.243Z,97455.02
2018-01-10T11:26:38.274Z,97455.84
2018-01-10T11:27:41.685Z,97451.58
2018-01-10T11:28:44.699Z,97460.33
2018-01-10T11:29:47.683Z,97459.39
2018-01-10T11:30:50.693Z,97452.72
2018-01-10T11:31:53.653Z,97460.17
2018-01-10T11:32:56.689Z,97461.22
2018-01-10T11:34:02.172Z,97455.86
2018-01-10T11:35:05.169Z,97460.59
2018-01-10T11:36:08.123Z,97454.39
2018-01-10T11:37:11.112Z,97453.89
2018-01-10T11:38:14.202Z,97446.89
2018-01-10T11:39:17.142Z,97453.82
2018-01-10T11:40:20.555Z,97447.23
2018-01-10T11:41:23.524Z,97447.20
2018-01-10T11:42:26.534Z,97457.77
2018-01-10T11:43:29.727Z,97442.41
2018-01-10T11:44:32.873Z,97445.91
2018-01-10T11:45:36.009Z,97450.73
2018-01-10T11:46:39.428Z,97440.45
2018-01-10T11:47:42.434Z,97445.79
2018-01-10T11:48:45.991Z,97442.10
2018-01-10T11:49:49.527Z,97444.67
2018-01-10T11:50:52.575Z,97433.37
2018-01-10T11:51:55.645Z,97441.41
2018-01-10T11:52:59.154Z,97437.33
2018-01-10T11:54:02.175Z,97439.45
2018-01-10T11:55:05.198Z,97431.33
2018-01-10T11:56:08.199Z,97431.03
2018-01-10T11:57:11.450Z,97434.91
2018-01-10T11:58:14.523Z,97434.28
2018-01-10T11:59:18.015Z,97433.16
2018-01-10T12:00:21.015Z,97434.11
2018-01-10T12:01:24.083Z,97441.66
2018-01-10T12:02:27.165Z,97440.89
2018-01-10T12:03:30.247Z,97431.23
2018-01-10T12:04:34.243Z,97443.31
2018-01-10T12:05:37.723Z,97431.91
2018-01-10T12:06:41.183Z,97447.73
2018-01-10T12:07:44.189Z,97440.58
2018-01-10T12:08:47.191Z,97436.83
2018-01-10T12:09:50.244Z,97433.64
2018-01-10T12:10:53.367Z,97430.56
2018-01-10T12:11:56.923Z,97434.48
2018-01-10T12:12:59.894Z,97430.56
2018-01-10T12:14:02.931Z,97426.95
2018-01-10T12:15:06.219Z,97428.73
2018-01-10T12:16:09.194Z,97428.05
2018-01-10T12:17:12.342Z,97429.90
2018-01-10T12:18:15.670Z,97424.50
2018-01-10T12:19:19.470Z,97427.03
2018-01-10T12:20:22.438Z,97423.88
2018-01-10T12:21:25.492Z,97425.66